Terminal Aerodrome Forecast
Issued by NWS Jackson, KY

Home | Current Version | Previous Version | Text Only | Print | Product List | Glossary On
Versions: 1 2 3 4 5 6 7 8 9 10 11 12 13 14 15 16 17 18 19 20
000
FTUS43 KJKL 270800 AAA
TAFJKL
TAF AMD
KJKL 270846Z 2709/2806 VRB05KT P6SM VCSH OVC025
      TEMPO 2709/2711 30007KT 4SM -SHSN OVC015
     FM271200 VRB05KT P6SM BKN025 BKN050
     FM271600 VRB05KT P6SM SCT025 BKN060
     FM280200 36005KT P6SM SCT010=

USA.gov is the U.S. government's official web portal to all federal, state and local government web resources and services.